Archival Weather

Chicago O'Hare International

Chicago, Illinois (KORD)

Report from: Sunday, December 4, 2022 2:51 AM CST
Current time: Saturday, June 22, 2024 5:20 AM CDT

Current weather – Weather history – Daily summaries
Weather forecast

Temperature-7.2°C (19.0°F)
Wind chill-12.2°C (10.0°F)
Dew point-13.3°C (8.1°F)
Winds 6 kts (3.1 m/s, 6.9 mph) South-Southwest (210°)
Visibility10 mi. (16.1 km)
Clouds Sky clear
Altimeter30.30 in.Hg (1026 mB)
Relative humidity62 %
Density altitude-3,196 ft. (-974 m)
Sea-level pressure102.7 kPa (1027 mB, 30.33 in.Hg)
Remarks System requires maintenance
Automated weather observing station with precipitation discriminator
Pressure falling more quickly
Flight conditions Visual Meteorological Conditions
Raw dataKORD 040851Z 21006KT 10SM CLR M07/M13 A3030 RMK AO2 SLP272 T10721133 58023 $
An error has occurred. This application may no longer respond until reloaded. Reload 🗙